createdAt,value
2023-02-02T00:01:59.509Z,-1.24
2023-02-02T00:04:31.643Z,-1.10
2023-02-02T00:06:58.962Z,-1.16
2023-02-02T00:09:29.195Z,-1.20
2023-02-02T00:11:57.111Z,-1.14
2023-02-02T00:14:24.073Z,-1.12
2023-02-02T00:16:52.813Z,-1.18
2023-02-02T00:19:23.283Z,-1.08
2023-02-02T00:21:49.814Z,-1.15
2023-02-02T00:24:17.980Z,-1.14
2023-02-02T00:26:46.780Z,-1.27
2023-02-02T00:29:18.864Z,-1.16
2023-02-02T00:31:45.848Z,-1.08
2023-02-02T00:34:14.108Z,-1.02
2023-02-02T00:36:41.342Z,-0.95
2023-02-02T00:39:09.435Z,-1.11
2023-02-02T00:41:36.027Z,-0.94
2023-02-02T00:44:02.533Z,-1.15
2023-02-02T00:46:29.002Z,-1.07
2023-02-02T00:48:55.621Z,-0.94
2023-02-02T00:51:22.251Z,-0.92
2023-02-02T00:53:48.804Z,-0.86
2023-02-02T00:56:15.383Z,-1.02
2023-02-02T00:58:41.970Z,-1.00
2023-02-02T01:01:18.946Z,-0.95
2023-02-02T01:03:45.466Z,-0.87
2023-02-02T01:06:12.012Z,-0.98
2023-02-02T01:08:38.874Z,-0.86
2023-02-02T01:11:07.141Z,-0.90
2023-02-02T01:13:33.817Z,-0.89
2023-02-02T01:16:02.030Z,-1.00
2023-02-02T01:18:29.258Z,-0.96
2023-02-02T01:20:59.615Z,-0.93
2023-02-02T01:23:26.299Z,-0.91
2023-02-02T01:25:54.451Z,-0.93
2023-02-02T01:28:21.090Z,-1.01
2023-02-02T01:30:47.812Z,-0.95
2023-02-02T01:33:14.554Z,-0.98
2023-02-02T01:35:51.841Z,-1.06
2023-02-02T01:38:19.412Z,-1.18
2023-02-02T01:40:56.849Z,-1.13
2023-02-02T01:43:42.771Z,-1.18
2023-02-02T01:46:14.291Z,-1.31
2023-02-02T01:48:44.112Z,-1.29
2023-02-02T01:51:16.188Z,-1.20
2023-02-02T01:53:45.488Z,-1.27
2023-02-02T01:56:17.362Z,-1.29
2023-02-02T01:58:45.303Z,-1.30
2023-02-02T02:01:13.427Z,-1.35
2023-02-02T02:03:40.149Z,-1.46
2023-02-02T02:06:10.376Z,-1.50
2023-02-02T02:08:42.275Z,-1.47
2023-02-02T02:11:08.997Z,-1.48
2023-02-02T02:13:38.774Z,-1.48
2023-02-02T02:16:19.217Z,-1.44
2023-02-02T02:19:00.561Z,-1.40
2023-02-02T02:22:02.701Z,-1.37
2023-02-02T02:24:35.252Z,-1.40
2023-02-02T02:27:28.429Z,-1.44
2023-02-02T02:30:13.140Z,-1.41
2023-02-02T02:32:50.779Z,-1.38
2023-02-02T02:35:35.592Z,-1.38
2023-02-02T02:38:38.048Z,-1.54
2023-02-02T02:41:11.745Z,-1.47
2023-02-02T02:43:43.448Z,-1.49
2023-02-02T02:46:10.991Z,-1.53
2023-02-02T02:48:37.602Z,-1.47
2023-02-02T02:51:35.809Z,-1.44
2023-02-02T02:54:02.406Z,-1.54
2023-02-02T02:56:57.073Z,-1.36
2023-02-02T02:59:23.554Z,-1.39
2023-02-02T03:02:13.641Z,-1.34
2023-02-02T03:04:55.079Z,-1.38
2023-02-02T03:07:21.589Z,-1.38
2023-02-02T03:09:50.556Z,-1.33
2023-02-02T03:12:18.207Z,-1.34
2023-02-02T03:14:44.820Z,-1.35
2023-02-02T03:17:11.443Z,-1.29
2023-02-02T03:19:37.947Z,-1.28
2023-02-02T03:22:04.624Z,-1.30
2023-02-02T03:24:31.141Z,-1.36
2023-02-02T03:26:57.710Z,-1.36
2023-02-02T03:29:24.447Z,-1.42
2023-02-02T03:31:51.189Z,-1.29
2023-02-02T03:34:17.666Z,-1.40
2023-02-02T03:36:44.235Z,-1.39
2023-02-02T03:39:10.688Z,-1.41
2023-02-02T03:41:37.242Z,-1.42
2023-02-02T03:44:03.827Z,-1.33
2023-02-02T03:46:30.392Z,-1.50
2023-02-02T03:48:56.895Z,-1.44
2023-02-02T03:51:23.612Z,-1.43
2023-02-02T03:53:50.182Z,-1.39
2023-02-02T03:56:17.031Z,-1.53
2023-02-02T03:58:43.594Z,-1.52
2023-02-02T04:01:14.046Z,-1.28
2023-02-02T04:03:40.540Z,-1.49
2023-02-02T04:06:07.145Z,-1.54
2023-02-02T04:08:34.376Z,-1.38
2023-02-02T04:11:01.134Z,-1.39
2023-02-02T04:13:27.733Z,-1.47
2023-02-02T04:15:59.167Z,-1.53
2023-02-02T04:18:25.809Z,-1.53
2023-02-02T04:20:59.987Z,-1.42
2023-02-02T04:23:28.007Z,-1.48
2023-02-02T04:25:54.836Z,-1.45
2023-02-02T04:28:21.515Z,-1.40
2023-02-02T04:30:48.140Z,-1.48
2023-02-02T04:33:14.639Z,-1.62
2023-02-02T04:35:42.943Z,-1.37
2023-02-02T04:38:10.109Z,-1.34
2023-02-02T04:40:41.145Z,-1.37
2023-02-02T04:43:07.842Z,-1.39
2023-02-02T04:45:34.921Z,-1.39
2023-02-02T04:48:01.832Z,-1.41
2023-02-02T04:50:28.426Z,-1.38
2023-02-02T04:52:55.023Z,-1.33
2023-02-02T04:55:22.563Z,-1.39
2023-02-02T04:57:49.262Z,-1.38
2023-02-02T05:00:16.339Z,-1.23
2023-02-02T05:02:43.409Z,-1.36
2023-02-02T05:05:12.273Z,-1.36
2023-02-02T05:07:39.192Z,-1.43
2023-02-02T05:10:07.287Z,-1.43
2023-02-02T05:12:33.919Z,-1.47
2023-02-02T05:15:00.456Z,-1.51
2023-02-02T05:17:27.732Z,-1.47
2023-02-02T05:19:54.268Z,-1.59
2023-02-02T05:22:20.776Z,-1.57
2023-02-02T05:24:47.349Z,-1.66
2023-02-02T05:27:13.911Z,-1.68
2023-02-02T05:29:40.388Z,-1.54
2023-02-02T05:32:06.948Z,-1.66
2023-02-02T05:34:33.550Z,-1.64
2023-02-02T05:37:00.041Z,-1.69
2023-02-02T05:39:26.608Z,-1.61
2023-02-02T05:41:53.292Z,-1.64
2023-02-02T05:44:19.886Z,-1.50
2023-02-02T05:46:46.461Z,-1.45
2023-02-02T05:49:14.104Z,-1.42
2023-02-02T05:51:48.208Z,-1.41
2023-02-02T05:54:14.857Z,-1.34
2023-02-02T05:56:41.387Z,-1.35
2023-02-02T05:59:08.011Z,-1.43
2023-02-02T06:01:34.736Z,-1.38
2023-02-02T06:04:01.430Z,-1.32
2023-02-02T06:06:28.017Z,-1.39
2023-02-02T06:08:54.756Z,-1.32
2023-02-02T06:11:21.354Z,-1.20
2023-02-02T06:13:47.884Z,-1.11
2023-02-02T06:16:14.764Z,-1.14
2023-02-02T06:18:41.409Z,-0.98
2023-02-02T06:21:07.943Z,-1.18
2023-02-02T06:23:34.784Z,-0.94
2023-02-02T06:26:01.941Z,-0.93
2023-02-02T06:28:28.861Z,-1.01
2023-02-02T06:30:56.208Z,-1.09
2023-02-02T06:33:22.812Z,-1.23
2023-02-02T06:35:49.293Z,-1.06
2023-02-02T06:38:15.750Z,-1.07
2023-02-02T06:40:43.098Z,-1.13
2023-02-02T06:43:09.625Z,-0.93
2023-02-02T06:45:36.089Z,-1.27
2023-02-02T06:48:02.683Z,-1.29
2023-02-02T06:50:29.887Z,-1.15
2023-02-02T06:52:56.507Z,-1.17
2023-02-02T06:55:23.449Z,-0.99
2023-02-02T06:57:56.407Z,-1.02
2023-02-02T07:00:23.171Z,-1.02
2023-02-02T07:02:49.846Z,-0.90
2023-02-02T07:05:16.713Z,-0.91
2023-02-02T07:07:43.293Z,-0.64
2023-02-02T07:10:10.166Z,-0.67
2023-02-02T07:12:56.696Z,-0.62
2023-02-02T07:15:23.802Z,-0.51
2023-02-02T07:17:50.484Z,-0.60
2023-02-02T07:20:17.284Z,-0.75
2023-02-02T07:22:43.790Z,-0.81
2023-02-02T07:25:10.317Z,-0.59
2023-02-02T07:27:36.878Z,-0.51
2023-02-02T07:30:04.201Z,-0.60
2023-02-02T07:32:30.864Z,-0.53
2023-02-02T07:34:57.406Z,-0.54
2023-02-02T07:37:24.021Z,-0.45
2023-02-02T07:39:50.575Z,-0.32
2023-02-02T07:42:17.144Z,-0.34
2023-02-02T07:44:43.873Z,-0.15
2023-02-02T07:47:10.395Z,-0.16
2023-02-02T07:49:36.951Z,-0.13
2023-02-02T07:52:03.903Z,-0.01
2023-02-02T07:54:30.485Z,0.07
2023-02-02T07:56:57.057Z,0.04
2023-02-02T07:59:23.719Z,0.19
2023-02-02T08:01:50.292Z,0.03
2023-02-02T08:04:16.931Z,0.21
2023-02-02T08:06:43.561Z,0.56
2023-02-02T08:09:10.516Z,0.47
2023-02-02T08:11:38.102Z,0.41
2023-02-02T08:14:05.857Z,0.41
2023-02-02T08:16:33.784Z,0.35
2023-02-02T08:19:00.789Z,0.27
2023-02-02T08:21:27.557Z,0.59
2023-02-02T08:23:54.497Z,-0.09
2023-02-02T08:26:26.659Z,0.25
2023-02-02T08:29:05.916Z,0.12
2023-02-02T08:31:38.472Z,0.16
2023-02-02T08:34:05.298Z,0.17
2023-02-02T08:36:31.911Z,0.36
2023-02-02T08:39:03.793Z,0.19
2023-02-02T08:41:30.322Z,0.43
2023-02-02T08:43:56.886Z,0.46
2023-02-02T08:46:23.503Z,0.54
2023-02-02T08:48:50.067Z,0.22
2023-02-02T08:51:19.003Z,0.48
2023-02-02T08:53:46.567Z,0.84
2023-02-02T08:56:22.987Z,0.68
2023-02-02T08:58:52.542Z,0.79
2023-02-02T09:01:30.822Z,0.91
2023-02-02T09:04:00.399Z,0.77
2023-02-02T09:06:39.248Z,0.44
2023-02-02T09:09:08.845Z,0.44
2023-02-02T09:11:36.371Z,0.50
2023-02-02T09:14:03.124Z,0.48
2023-02-02T09:16:30.078Z,0.53
2023-02-02T09:18:57.209Z,0.41
2023-02-02T09:21:24.513Z,0.15
2023-02-02T09:23:53.591Z,0.33
2023-02-02T09:26:26.048Z,0.11
2023-02-02T09:28:58.881Z,0.13
2023-02-02T09:31:26.440Z,0.21
2023-02-02T09:33:53.156Z,0.11
2023-02-02T09:36:21.951Z,0.25
2023-02-02T09:38:49.688Z,0.27
2023-02-02T09:41:16.110Z,0.40
2023-02-02T09:43:42.576Z,0.44
2023-02-02T09:46:25.945Z,0.43
2023-02-02T09:49:03.720Z,0.27
2023-02-02T09:51:35.377Z,0.22
2023-02-02T09:54:24.010Z,-0.05
2023-02-02T09:56:53.740Z,0.20
2023-02-02T09:59:40.445Z,0.26
2023-02-02T10:02:22.530Z,0.02
2023-02-02T10:04:54.078Z,0.00
2023-02-02T10:07:27.993Z,-0.49
2023-02-02T10:10:11.655Z,-0.24
2023-02-02T10:12:57.288Z,-0.14
2023-02-02T10:15:34.249Z,-0.11
2023-02-02T10:18:10.022Z,-0.09
2023-02-02T10:20:45.443Z,-0.16
2023-02-02T10:23:30.583Z,-0.13
2023-02-02T10:26:19.177Z,-0.04
2023-02-02T10:28:51.522Z,-0.22
2023-02-02T10:31:41.300Z,-0.12
2023-02-02T10:34:14.786Z,0.04
2023-02-02T10:37:02.117Z,-0.20
2023-02-02T10:39:57.091Z,-0.18
2023-02-02T10:42:56.074Z,-0.29
2023-02-02T10:45:23.953Z,-0.41
2023-02-02T10:47:51.376Z,-0.29
2023-02-02T10:50:20.018Z,-0.12
2023-02-02T10:52:52.130Z,-0.03
2023-02-02T10:55:44.489Z,-0.18
2023-02-02T10:58:14.149Z,0.00
2023-02-02T11:00:48.333Z,-0.16
2023-02-02T11:03:17.391Z,-0.18
2023-02-02T11:05:44.068Z,-0.16
2023-02-02T11:08:25.278Z,-0.11
2023-02-02T11:10:54.605Z,-0.22
2023-02-02T11:13:33.329Z,-0.29
2023-02-02T11:16:14.910Z,-0.29
2023-02-02T11:18:44.234Z,-0.55
2023-02-02T11:21:21.216Z,-0.32
2023-02-02T11:24:19.078Z,-0.42
2023-02-02T11:26:56.047Z,-0.36
2023-02-02T11:29:42.988Z,-0.39
2023-02-02T11:32:32.256Z,-0.35
2023-02-02T11:35:01.820Z,-0.38
2023-02-02T11:37:29.205Z,-0.37
2023-02-02T11:40:18.224Z,-0.36
2023-02-02T11:42:47.627Z,-0.36
2023-02-02T11:45:36.556Z,-0.30
2023-02-02T11:48:24.583Z,-0.14
2023-02-02T11:50:54.759Z,-0.09
2023-02-02T11:53:26.475Z,-0.04
2023-02-02T11:55:54.797Z,-0.21
2023-02-02T11:58:29.058Z,-0.26
2023-02-02T12:01:01.809Z,-0.10
2023-02-02T12:03:30.569Z,-0.15
2023-02-02T12:05:57.761Z,-0.24
2023-02-02T12:08:25.429Z,-0.46
2023-02-02T12:10:58.750Z,-0.40
2023-02-02T12:13:34.206Z,-0.59
2023-02-02T12:16:03.884Z,-0.55
2023-02-02T12:18:30.379Z,-0.52
2023-02-02T12:21:02.597Z,-0.55
2023-02-02T12:23:49.233Z,-0.64
2023-02-02T12:26:31.503Z,-0.58
2023-02-02T12:28:58.179Z,-0.75
2023-02-02T12:31:34.024Z,-0.62
2023-02-02T12:34:20.007Z,-0.53
2023-02-02T12:37:10.107Z,-0.70
2023-02-02T12:40:11.521Z,-0.71
2023-02-02T12:43:02.387Z,-0.80
2023-02-02T12:46:06.567Z,-0.70
2023-02-02T12:48:54.409Z,-0.60
2023-02-02T12:51:39.341Z,-0.62
2023-02-02T12:54:33.520Z,-0.60
2023-02-02T12:57:28.244Z,-0.61
2023-02-02T13:00:00.746Z,-0.76
2023-02-02T13:02:49.192Z,-0.76
2023-02-02T13:05:33.098Z,-0.88
2023-02-02T13:08:13.537Z,-0.76
2023-02-02T13:10:44.335Z,-0.85
2023-02-02T13:13:18.803Z,-0.80
2023-02-02T13:16:13.050Z,-0.88
2023-02-02T13:18:46.890Z,-0.86
2023-02-02T13:21:16.762Z,-0.75
2023-02-02T13:23:49.746Z,-0.72
2023-02-02T13:26:20.381Z,-0.76
2023-02-02T13:28:59.941Z,-0.82
2023-02-02T13:32:10.750Z,-0.67
2023-02-02T13:34:43.262Z,-0.77
2023-02-02T13:37:17.183Z,-0.81
2023-02-02T13:39:53.284Z,-0.85
2023-02-02T13:42:31.410Z,-0.74
2023-02-02T13:45:06.670Z,-0.67
2023-02-02T13:47:49.711Z,-0.61
2023-02-02T13:50:19.941Z,-0.71
2023-02-02T13:53:01.657Z,-0.74
2023-02-02T13:55:51.389Z,-0.88
2023-02-02T13:58:46.932Z,-0.85
2023-02-02T14:01:14.573Z,-0.78
2023-02-02T14:03:43.633Z,-0.79
2023-02-02T14:06:18.949Z,-0.76
2023-02-02T14:08:51.729Z,-1.00
2023-02-02T14:11:26.923Z,-0.76
2023-02-02T14:14:21.091Z,-0.68
2023-02-02T14:16:49.750Z,-0.92
2023-02-02T14:19:39.543Z,-0.90
2023-02-02T14:22:11.208Z,-0.79
2023-02-02T14:24:37.642Z,-0.88
2023-02-02T14:27:07.113Z,-0.85
2023-02-02T14:29:36.012Z,-0.93
2023-02-02T14:32:24.554Z,-0.65
2023-02-02T14:34:53.000Z,-0.81
2023-02-02T14:37:25.336Z,-0.90
2023-02-02T14:40:07.825Z,-0.86
2023-02-02T14:43:01.308Z,-0.90
2023-02-02T14:45:29.822Z,-0.94
2023-02-02T14:48:01.893Z,-0.86
2023-02-02T14:50:55.956Z,-0.82
2023-02-02T14:53:39.748Z,-0.94
2023-02-02T14:56:16.803Z,-0.95
2023-02-02T14:58:53.009Z,-1.05
2023-02-02T15:01:19.684Z,-0.94
2023-02-02T15:03:56.760Z,-0.85
2023-02-02T15:06:38.413Z,-0.95
2023-02-02T15:09:21.083Z,-0.98
2023-02-02T15:12:01.467Z,-0.91
2023-02-02T15:14:56.069Z,-1.01
2023-02-02T15:17:28.972Z,-1.03
2023-02-02T15:20:16.317Z,-1.13
2023-02-02T15:23:23.503Z,-1.27
2023-02-02T15:25:56.270Z,-1.42
2023-02-02T15:28:28.238Z,-1.37
2023-02-02T15:31:00.833Z,-1.34
2023-02-02T15:33:31.742Z,-1.36
2023-02-02T15:36:03.449Z,-1.44
2023-02-02T15:38:38.020Z,-1.29
2023-02-02T15:41:27.179Z,-1.38
2023-02-02T15:43:54.184Z,-1.40
2023-02-02T15:46:25.561Z,-1.28
2023-02-02T15:49:31.401Z,-1.28
2023-02-02T15:52:03.184Z,-1.36
2023-02-02T15:54:32.947Z,-1.35
2023-02-02T15:57:01.328Z,-1.37
2023-02-02T15:59:40.465Z,-1.47
2023-02-02T16:02:06.989Z,-1.33
2023-02-02T16:04:36.881Z,-1.33
2023-02-02T16:07:06.784Z,-1.32
2023-02-02T16:09:35.818Z,-1.34
2023-02-02T16:12:04.893Z,-1.39
2023-02-02T16:14:33.074Z,-1.35
2023-02-02T16:17:18.917Z,-1.41
2023-02-02T16:19:45.997Z,-1.37
2023-02-02T16:22:17.880Z,-1.34
2023-02-02T16:24:49.637Z,-1.33
2023-02-02T16:27:22.587Z,-1.35
2023-02-02T16:29:49.876Z,-1.39
2023-02-02T16:32:28.544Z,-1.42
2023-02-02T16:34:55.350Z,-1.43
2023-02-02T16:37:24.024Z,-1.46
2023-02-02T16:39:50.700Z,-1.39
2023-02-02T16:42:29.386Z,-1.32
2023-02-02T16:44:57.921Z,-1.50
2023-02-02T16:47:27.220Z,-1.45
2023-02-02T16:50:23.548Z,-1.39
2023-02-02T16:52:55.085Z,-1.33
2023-02-02T16:55:22.724Z,-1.26
2023-02-02T16:57:51.182Z,-1.42
2023-02-02T17:00:24.333Z,-1.50
2023-02-02T17:02:58.417Z,-1.56
2023-02-02T17:05:51.074Z,-1.47
2023-02-02T17:08:31.161Z,-1.43
2023-02-02T17:11:23.347Z,-1.32
2023-02-02T17:13:50.092Z,-1.33
2023-02-02T17:16:22.090Z,-1.38
2023-02-02T17:18:50.285Z,-1.39
2023-02-02T17:21:25.422Z,-1.47
2023-02-02T17:23:52.861Z,-1.32
2023-02-02T17:26:20.220Z,-1.27
2023-02-02T17:28:47.246Z,-1.41
2023-02-02T17:31:16.003Z,-1.37
2023-02-02T17:33:42.988Z,-1.35
2023-02-02T17:36:12.709Z,-1.29
2023-02-02T17:38:39.599Z,-1.18
2023-02-02T17:41:06.519Z,-1.34
2023-02-02T17:43:33.435Z,-1.21
2023-02-02T17:46:00.571Z,-1.37
2023-02-02T17:48:27.523Z,-1.26
2023-02-02T17:50:54.040Z,-1.32
2023-02-02T17:53:22.137Z,-1.27
2023-02-02T17:55:50.088Z,-1.19
2023-02-02T17:58:16.867Z,-1.19
2023-02-02T18:00:47.695Z,-1.21
2023-02-02T18:03:19.638Z,-1.19
2023-02-02T18:05:46.310Z,-1.22
2023-02-02T18:08:13.854Z,-1.24
2023-02-02T18:10:41.753Z,-1.22
2023-02-02T18:13:11.042Z,-1.22
2023-02-02T18:15:38.625Z,-1.08
2023-02-02T18:18:05.268Z,-1.11
2023-02-02T18:20:31.778Z,-1.14
2023-02-02T18:22:58.305Z,-1.09
2023-02-02T18:25:25.724Z,-1.14
2023-02-02T18:27:53.547Z,-1.11
2023-02-02T18:30:21.385Z,-1.10
2023-02-02T18:32:47.970Z,-1.13
2023-02-02T18:35:14.494Z,-1.06
2023-02-02T18:37:41.062Z,-1.06
2023-02-02T18:40:08.151Z,-1.17
2023-02-02T18:42:36.261Z,-1.02
2023-02-02T18:45:04.391Z,-1.05
2023-02-02T18:47:31.027Z,-1.08
2023-02-02T18:49:57.641Z,-1.09
2023-02-02T18:52:24.680Z,-1.11
2023-02-02T18:54:51.172Z,-1.08
2023-02-02T18:57:17.754Z,-1.26
2023-02-02T18:59:44.615Z,-1.26
2023-02-02T19:02:15.538Z,-1.13
2023-02-02T19:04:42.423Z,-1.14
2023-02-02T19:07:08.977Z,-1.18
2023-02-02T19:09:35.822Z,-1.16
2023-02-02T19:12:02.684Z,-1.25
2023-02-02T19:14:33.837Z,-1.17
2023-02-02T19:17:23.291Z,-1.35
2023-02-02T19:19:50.243Z,-1.14
2023-02-02T19:22:22.363Z,-1.17
2023-02-02T19:24:50.343Z,-1.23
2023-02-02T19:27:19.327Z,-1.24
2023-02-02T19:29:47.759Z,-1.13
2023-02-02T19:32:17.418Z,-1.08
2023-02-02T19:34:45.495Z,-1.15
2023-02-02T19:37:26.822Z,-1.18
2023-02-02T19:40:09.381Z,-1.23
2023-02-02T19:42:43.388Z,-1.20
2023-02-02T19:45:25.579Z,-1.14
2023-02-02T19:47:54.821Z,-1.02
2023-02-02T19:50:24.278Z,-1.10
2023-02-02T19:52:52.401Z,-1.13
2023-02-02T19:55:34.751Z,-1.15
2023-02-02T19:58:12.734Z,-1.10
2023-02-02T20:00:41.190Z,-1.08
2023-02-02T20:03:26.236Z,-1.06
2023-02-02T20:05:55.296Z,-1.08
2023-02-02T20:11:33.745Z,-1.15
2023-02-02T20:14:03.009Z,-0.89
2023-02-02T20:16:40.893Z,-1.09
2023-02-02T20:19:17.247Z,-1.11
2023-02-02T20:21:46.502Z,-1.16
2023-02-02T20:24:23.677Z,-1.10
2023-02-02T20:26:51.752Z,-1.05
2023-02-02T20:29:18.213Z,-1.12
2023-02-02T20:31:46.890Z,-1.25
2023-02-02T20:34:27.287Z,-1.28
2023-02-02T20:36:58.971Z,-1.10
2023-02-02T20:39:37.252Z,-1.10
2023-02-02T20:42:04.220Z,-1.04
2023-02-02T20:44:32.687Z,-1.08
2023-02-02T20:46:59.356Z,-1.09
2023-02-02T20:49:27.457Z,-1.13
2023-02-02T20:51:59.504Z,-1.11
2023-02-02T20:54:26.605Z,-1.21
2023-02-02T20:56:53.520Z,-1.09
2023-02-02T20:59:21.550Z,-1.08
2023-02-02T21:01:48.516Z,-1.01
2023-02-02T21:04:15.440Z,-1.07
2023-02-02T21:06:42.010Z,-1.08
2023-02-02T21:09:09.682Z,-1.10
2023-02-02T21:11:36.870Z,-1.11
2023-02-02T21:14:03.855Z,-1.02
2023-02-02T21:16:30.407Z,-0.97
2023-02-02T21:18:57.591Z,-1.05
2023-02-02T21:21:24.726Z,-1.14
2023-02-02T21:23:51.265Z,-1.14
2023-02-02T21:26:20.565Z,-1.09
2023-02-02T21:28:47.183Z,-1.01
2023-02-02T21:31:15.547Z,-1.04
2023-02-02T21:33:43.580Z,-1.05
2023-02-02T21:36:36.001Z,-1.04
2023-02-02T21:39:17.473Z,-1.12
2023-02-02T21:41:45.252Z,-1.05
2023-02-02T21:44:17.598Z,-1.06
2023-02-02T21:46:46.044Z,-1.10
2023-02-02T21:49:37.197Z,-1.01
2023-02-02T21:52:15.654Z,-1.22
2023-02-02T21:54:43.405Z,-1.26
2023-02-02T21:57:22.134Z,-1.16
2023-02-02T21:59:56.700Z,-1.25
2023-02-02T22:02:44.463Z,-1.24
2023-02-02T22:05:17.250Z,-1.19
2023-02-02T22:07:47.486Z,-1.19
2023-02-02T22:10:20.542Z,-1.15
2023-02-02T22:12:47.194Z,-1.16
2023-02-02T22:15:21.007Z,-1.14
2023-02-02T22:17:47.531Z,-1.15
2023-02-02T22:20:17.138Z,-1.10
2023-02-02T22:22:49.035Z,-1.10
2023-02-02T22:25:18.537Z,-1.14
2023-02-02T22:27:56.450Z,-1.13
2023-02-02T22:30:29.244Z,-1.03
2023-02-02T22:32:56.003Z,-0.92
2023-02-02T22:35:22.568Z,-1.00
2023-02-02T22:37:49.137Z,-1.01
2023-02-02T22:40:15.751Z,-1.01
2023-02-02T22:42:43.125Z,-0.96
2023-02-02T22:45:10.006Z,-0.93
2023-02-02T22:47:36.547Z,-0.85
2023-02-02T22:50:03.175Z,-0.88
2023-02-02T22:52:29.696Z,-0.90
2023-02-02T22:54:56.198Z,-0.83
2023-02-02T22:57:22.781Z,-0.83
2023-02-02T22:59:49.374Z,-0.68
2023-02-02T23:02:16.013Z,-0.79
2023-02-02T23:04:42.559Z,-0.79
2023-02-02T23:07:09.162Z,-0.70
2023-02-02T23:09:35.977Z,-0.76
2023-02-02T23:12:02.534Z,-0.67
2023-02-02T23:14:29.075Z,-0.65
2023-02-02T23:16:55.567Z,-0.70
2023-02-02T23:19:22.408Z,-0.67
2023-02-02T23:21:48.882Z,-0.60
2023-02-02T23:24:15.356Z,-0.50
2023-02-02T23:26:41.927Z,-0.58
2023-02-02T23:29:08.433Z,-0.44
2023-02-02T23:31:35.004Z,-0.53
2023-02-02T23:34:01.804Z,-0.43
2023-02-02T23:36:28.405Z,-0.42
2023-02-02T23:38:54.927Z,-0.51
2023-02-02T23:41:21.508Z,-0.61
2023-02-02T23:43:48.097Z,-0.51
2023-02-02T23:46:14.658Z,-0.64
2023-02-02T23:48:41.881Z,-0.68
2023-02-02T23:51:09.215Z,-0.69
2023-02-02T23:53:36.259Z,-0.71
2023-02-02T23:56:02.799Z,-0.68
2023-02-02T23:58:29.298Z,-0.61
